sensor_id;sensor_type;location;lat;lon;timestamp;P1;durP1;ratioP1;P2;durP2;ratioP2
56343;SDS011;42245;42.058;24.700;2023-08-30T03:58:33;20.35;;;12.63;;
56343;SDS011;42245;42.058;24.700;2023-08-30T04:00:59;20.15;;;12.02;;
56343;SDS011;42245;42.058;24.700;2023-08-30T04:03:24;19.02;;;11.82;;
56343;SDS011;42245;42.058;24.700;2023-08-30T04:05:56;14.80;;;11.60;;
56343;SDS011;42245;42.058;24.700;2023-08-30T04:08:22;17.30;;;12.13;;
56343;SDS011;42245;42.058;24.700;2023-08-30T04:10:47;26.05;;;11.98;;
56343;SDS011;42245;42.058;24.700;2023-08-30T04:13:14;24.77;;;11.88;;
56343;SDS011;42245;42.058;24.700;2023-08-30T04:15:40;15.23;;;11.85;;
56343;SDS011;42245;42.058;24.700;2023-08-30T04:18:06;18.67;;;11.10;;
56343;SDS011;42245;42.058;24.700;2023-08-30T04:20:32;17.40;;;10.85;;
56343;SDS011;42245;42.058;24.700;2023-08-30T04:22:58;13.23;;;11.10;;
56343;SDS011;42245;42.058;24.700;2023-08-30T04:25:27;17.75;;;11.43;;
56343;SDS011;42245;42.058;24.700;2023-08-30T04:27:53;15.43;;;11.05;;
56343;SDS011;42245;42.058;24.700;2023-08-30T04:30:21;15.38;;;11.27;;
56343;SDS011;42245;42.058;24.700;2023-08-30T04:32:46;17.15;;;11.18;;
56343;SDS011;42245;42.058;24.700;2023-08-30T04:35:12;15.45;;;11.02;;
56343;SDS011;42245;42.058;24.700;2023-08-30T04:37:37;15.18;;;11.27;;
56343;SDS011;42245;42.058;24.700;2023-08-30T04:40:07;21.75;;;11.35;;
56343;SDS011;42245;42.058;24.700;2023-08-30T04:42:34;14.70;;;10.07;;
56343;SDS011;42245;42.058;24.700;2023-08-30T04:45:00;34.25;;;10.90;;
56343;SDS011;42245;42.058;24.700;2023-08-30T04:47:27;16.50;;;10.63;;
56343;SDS011;42245;42.058;24.700;2023-08-30T04:49:53;19.08;;;11.10;;
56343;SDS011;42245;42.058;24.700;2023-08-30T04:52:19;15.50;;;10.85;;
56343;SDS011;42245;42.058;24.700;2023-08-30T04:54:44;14.63;;;10.60;;
56343;SDS011;42245;42.058;24.700;2023-08-30T04:57:14;14.48;;;10.85;;
56343;SDS011;42245;42.058;24.700;2023-08-30T04:59:41;15.13;;;10.52;;
56343;SDS011;42245;42.058;24.700;2023-08-30T05:02:07;18.05;;;10.57;;
56343;SDS011;42245;42.058;24.700;2023-08-30T05:04:32;17.13;;;10.50;;
56343;SDS011;42245;42.058;24.700;2023-08-30T05:06:58;18.95;;;10.43;;
56343;SDS011;42245;42.058;24.700;2023-08-30T05:09:23;18.48;;;10.25;;
56343;SDS011;42245;42.058;24.700;2023-08-30T05:11:53;13.45;;;9.80;;
56343;SDS011;42245;42.058;24.700;2023-08-30T05:14:19;14.68;;;9.90;;
56343;SDS011;42245;42.058;24.700;2023-08-30T05:16:45;12.25;;;9.40;;
56343;SDS011;42245;42.058;24.700;2023-08-30T05:19:11;12.95;;;10.00;;
56343;SDS011;42245;42.058;24.700;2023-08-30T05:21:36;14.20;;;10.10;;
56343;SDS011;42245;42.058;24.700;2023-08-30T05:24:02;14.45;;;10.57;;
56343;SDS011;42245;42.058;24.700;2023-08-30T05:26:27;13.07;;;9.90;;
56343;SDS011;42245;42.058;24.700;2023-08-30T05:28:53;15.93;;;11.20;;
56343;SDS011;42245;42.058;24.700;2023-08-30T05:31:18;18.45;;;11.52;;
56343;SDS011;42245;42.058;24.700;2023-08-30T05:33:44;15.75;;;10.30;;
56343;SDS011;42245;42.058;24.700;2023-08-30T05:36:09;19.45;;;10.73;;
56343;SDS011;42245;42.058;24.700;2023-08-30T05:38:35;16.67;;;10.98;;
56343;SDS011;42245;42.058;24.700;2023-08-30T05:41:00;19.73;;;11.98;;
56343;SDS011;42245;42.058;24.700;2023-08-30T05:43:25;14.13;;;10.88;;
56343;SDS011;42245;42.058;24.700;2023-08-30T05:45:51;25.13;;;11.55;;
56343;SDS011;42245;42.058;24.700;2023-08-30T05:48:16;14.52;;;11.95;;
56343;SDS011;42245;42.058;24.700;2023-08-30T05:50:42;15.32;;;11.55;;
56343;SDS011;42245;42.058;24.700;2023-08-30T05:53:07;18.50;;;13.05;;
56343;SDS011;42245;42.058;24.700;2023-08-30T05:55:33;22.77;;;12.57;;
56343;SDS011;42245;42.058;24.700;2023-08-30T05:57:58;29.75;;;13.77;;
56343;SDS011;42245;42.058;24.700;2023-08-30T06:00:24;22.50;;;12.35;;
56343;SDS011;42245;42.058;24.700;2023-08-30T06:02:51;19.35;;;12.40;;
56343;SDS011;42245;42.058;24.700;2023-08-30T06:05:17;20.00;;;12.90;;
56343;SDS011;42245;42.058;24.700;2023-08-30T06:07:42;19.75;;;12.75;;
56343;SDS011;42245;42.058;24.700;2023-08-30T06:10:08;16.23;;;12.15;;
56343;SDS011;42245;42.058;24.700;2023-08-30T06:12:34;20.48;;;12.65;;
56343;SDS011;42245;42.058;24.700;2023-08-30T06:14:59;20.83;;;12.82;;
56343;SDS011;42245;42.058;24.700;2023-08-30T06:17:25;18.08;;;11.93;;
56343;SDS011;42245;42.058;24.700;2023-08-30T06:19:50;47.13;;;15.27;;
56343;SDS011;42245;42.058;24.700;2023-08-30T06:22:16;17.20;;;12.00;;
56343;SDS011;42245;42.058;24.700;2023-08-30T06:24:42;19.50;;;12.25;;
56343;SDS011;42245;42.058;24.700;2023-08-30T06:27:07;21.52;;;12.38;;
56343;SDS011;42245;42.058;24.700;2023-08-30T06:29:33;18.15;;;11.13;;
56343;SDS011;42245;42.058;24.700;2023-08-30T06:31:58;17.15;;;10.98;;
56343;SDS011;42245;42.058;24.700;2023-08-30T06:34:24;14.93;;;11.10;;
56343;SDS011;42245;42.058;24.700;2023-08-30T06:36:49;16.02;;;10.35;;
56343;SDS011;42245;42.058;24.700;2023-08-30T06:39:15;14.63;;;9.98;;
56343;SDS011;42245;42.058;24.700;2023-08-30T06:41:42;14.63;;;10.45;;
56343;SDS011;42245;42.058;24.700;2023-08-30T06:44:07;15.73;;;10.00;;
56343;SDS011;42245;42.058;24.700;2023-08-30T06:46:32;12.30;;;10.48;;
56343;SDS011;42245;42.058;24.700;2023-08-30T06:48:58;13.07;;;9.57;;
56343;SDS011;42245;42.058;24.700;2023-08-30T06:51:23;16.38;;;10.63;;
56343;SDS011;42245;42.058;24.700;2023-08-30T06:53:49;12.50;;;9.13;;
56343;SDS011;42245;42.058;24.700;2023-08-30T06:56:15;17.52;;;9.95;;
56343;SDS011;42245;42.058;24.700;2023-08-30T06:58:41;13.68;;;10.32;;
56343;SDS011;42245;42.058;24.700;2023-08-30T07:01:07;19.98;;;10.57;;
56343;SDS011;42245;42.058;24.700;2023-08-30T07:03:32;16.70;;;10.43;;
56343;SDS011;42245;42.058;24.700;2023-08-30T07:05:57;17.73;;;9.60;;
56343;SDS011;42245;42.058;24.700;2023-08-30T07:08:23;16.48;;;10.38;;
56343;SDS011;42245;42.058;24.700;2023-08-30T07:10:48;25.33;;;10.82;;
56343;SDS011;42245;42.058;24.700;2023-08-30T07:13:14;15.75;;;10.75;;
56343;SDS011;42245;42.058;24.700;2023-08-30T07:15:40;19.67;;;10.35;;
56343;SDS011;42245;42.058;24.700;2023-08-30T07:18:06;17.77;;;10.23;;
56343;SDS011;42245;42.058;24.700;2023-08-30T07:20:32;14.02;;;9.80;;
56343;SDS011;42245;42.058;24.700;2023-08-30T07:22:57;16.42;;;9.57;;
56343;SDS011;42245;42.058;24.700;2023-08-30T07:25:23;18.08;;;9.05;;
56343;SDS011;42245;42.058;24.700;2023-08-30T07:27:49;20.20;;;10.05;;
56343;SDS011;42245;42.058;24.700;2023-08-30T07:30:15;13.20;;;9.07;;
56343;SDS011;42245;42.058;24.700;2023-08-30T07:32:40;17.30;;;9.60;;
56343;SDS011;42245;42.058;24.700;2023-08-30T07:35:06;13.75;;;8.95;;
56343;SDS011;42245;42.058;24.700;2023-08-30T07:37:31;19.90;;;9.73;;
56343;SDS011;42245;42.058;24.700;2023-08-30T07:39:57;15.95;;;9.02;;
56343;SDS011;42245;42.058;24.700;2023-08-30T07:42:22;12.98;;;8.90;;
56343;SDS011;42245;42.058;24.700;2023-08-30T07:44:48;15.50;;;8.45;;
56343;SDS011;42245;42.058;24.700;2023-08-30T07:47:13;15.82;;;9.02;;
56343;SDS011;42245;42.058;24.700;2023-08-30T07:49:39;15.80;;;8.10;;
56343;SDS011;42245;42.058;24.700;2023-08-30T07:52:05;13.80;;;8.70;;
56343;SDS011;42245;42.058;24.700;2023-08-30T07:54:33;14.93;;;8.75;;
56343;SDS011;42245;42.058;24.700;2023-08-30T07:56:58;16.48;;;8.65;;
56343;SDS011;42245;42.058;24.700;2023-08-30T07:59:24;10.50;;;8.52;;
56343;SDS011;42245;42.058;24.700;2023-08-30T08:01:49;16.23;;;9.57;;
56343;SDS011;42245;42.058;24.700;2023-08-30T08:04:16;19.25;;;8.65;;
56343;SDS011;42245;42.058;24.700;2023-08-30T08:06:42;12.98;;;9.00;;
56343;SDS011;42245;42.058;24.700;2023-08-30T08:09:07;12.00;;;8.45;;
56343;SDS011;42245;42.058;24.700;2023-08-30T08:11:33;11.43;;;8.27;;
56343;SDS011;42245;42.058;24.700;2023-08-30T08:13:58;16.75;;;9.35;;
56343;SDS011;42245;42.058;24.700;2023-08-30T08:16:24;14.50;;;8.82;;
56343;SDS011;42245;42.058;24.700;2023-08-30T08:18:49;13.25;;;8.60;;
56343;SDS011;42245;42.058;24.700;2023-08-30T08:21:17;11.55;;;8.32;;
56343;SDS011;42245;42.058;24.700;2023-08-30T08:23:45;22.00;;;7.60;;
56343;SDS011;42245;42.058;24.700;2023-08-30T08:26:14;14.43;;;8.85;;
56343;SDS011;42245;42.058;24.700;2023-08-30T08:28:39;13.27;;;8.55;;
56343;SDS011;42245;42.058;24.700;2023-08-30T08:31:06;14.20;;;8.73;;
56343;SDS011;42245;42.058;24.700;2023-08-30T08:33:31;13.68;;;8.70;;
56343;SDS011;42245;42.058;24.700;2023-08-30T08:35:57;17.23;;;9.15;;
56343;SDS011;42245;42.058;24.700;2023-08-30T08:38:22;10.90;;;8.30;;
56343;SDS011;42245;42.058;24.700;2023-08-30T08:40:48;15.88;;;9.38;;
56343;SDS011;42245;42.058;24.700;2023-08-30T08:43:15;11.45;;;8.13;;
56343;SDS011;42245;42.058;24.700;2023-08-30T08:45:43;12.68;;;8.25;;
56343;SDS011;42245;42.058;24.700;2023-08-30T08:48:09;19.17;;;8.80;;
56343;SDS011;42245;42.058;24.700;2023-08-30T08:50:35;14.70;;;8.45;;
56343;SDS011;42245;42.058;24.700;2023-08-30T08:53:01;13.52;;;8.75;;
56343;SDS011;42245;42.058;24.700;2023-08-30T08:55:29;15.70;;;8.52;;
56343;SDS011;42245;42.058;24.700;2023-08-30T08:57:56;14.60;;;8.93;;
56343;SDS011;42245;42.058;24.700;2023-08-30T09:00:23;14.63;;;8.80;;
56343;SDS011;42245;42.058;24.700;2023-08-30T09:02:49;12.73;;;8.20;;
56343;SDS011;42245;42.058;24.700;2023-08-30T09:05:17;12.18;;;8.30;;
56343;SDS011;42245;42.058;24.700;2023-08-30T09:07:43;15.80;;;9.50;;
56343;SDS011;42245;42.058;24.700;2023-08-30T09:10:09;13.00;;;8.95;;
56343;SDS011;42245;42.058;24.700;2023-08-30T09:12:35;11.63;;;8.95;;
56343;SDS011;42245;42.058;24.700;2023-08-30T09:15:01;22.77;;;11.40;;
56343;SDS011;42245;42.058;24.700;2023-08-30T09:17:39;16.70;;;8.90;;
56343;SDS011;42245;42.058;24.700;2023-08-30T09:20:08;15.88;;;8.88;;
56343;SDS011;42245;42.058;24.700;2023-08-30T09:22:38;16.58;;;8.95;;
56343;SDS011;42245;42.058;24.700;2023-08-30T09:25:11;15.23;;;8.35;;
56343;SDS011;42245;42.058;24.700;2023-08-30T09:27:48;15.10;;;8.40;;
56343;SDS011;42245;42.058;24.700;2023-08-30T09:30:14;16.42;;;9.43;;
56343;SDS011;42245;42.058;24.700;2023-08-30T09:32:40;14.98;;;9.02;;
56343;SDS011;42245;42.058;24.700;2023-08-30T09:35:07;12.75;;;8.70;;
56343;SDS011;42245;42.058;24.700;2023-08-30T09:37:33;11.32;;;8.40;;
56343;SDS011;42245;42.058;24.700;2023-08-30T09:39:59;12.30;;;8.98;;
56343;SDS011;42245;42.058;24.700;2023-08-30T09:42:27;11.57;;;8.35;;
56343;SDS011;42245;42.058;24.700;2023-08-30T09:44:53;16.70;;;9.32;;
56343;SDS011;42245;42.058;24.700;2023-08-30T09:47:19;15.73;;;8.63;;
56343;SDS011;42245;42.058;24.700;2023-08-30T09:49:45;19.20;;;9.10;;
56343;SDS011;42245;42.058;24.700;2023-08-30T09:52:15;15.13;;;9.20;;
56343;SDS011;42245;42.058;24.700;2023-08-30T09:54:41;15.75;;;8.80;;
56343;SDS011;42245;42.058;24.700;2023-08-30T09:57:11;12.65;;;9.18;;
56343;SDS011;42245;42.058;24.700;2023-08-30T09:59:37;17.17;;;8.50;;
56343;SDS011;42245;42.058;24.700;2023-08-30T10:02:05;14.15;;;8.68;;
56343;SDS011;42245;42.058;24.700;2023-08-30T10:04:31;13.48;;;8.95;;
56343;SDS011;42245;42.058;24.700;2023-08-30T10:06:57;14.43;;;9.45;;
56343;SDS011;42245;42.058;24.700;2023-08-30T10:09:23;18.92;;;9.80;;
56343;SDS011;42245;42.058;24.700;2023-08-30T10:11:49;14.85;;;8.93;;
56343;SDS011;42245;42.058;24.700;2023-08-30T10:14:15;13.90;;;8.93;;
56343;SDS011;42245;42.058;24.700;2023-08-30T10:16:45;14.00;;;8.95;;
56343;SDS011;42245;42.058;24.700;2023-08-30T10:19:15;14.23;;;9.32;;
56343;SDS011;42245;42.058;24.700;2023-08-30T10:21:47;15.82;;;9.02;;
56343;SDS011;42245;42.058;24.700;2023-08-30T10:24:14;15.32;;;9.18;;
56343;SDS011;42245;42.058;24.700;2023-08-30T10:26:41;11.60;;;8.85;;
56343;SDS011;42245;42.058;24.700;2023-08-30T10:29:08;14.50;;;9.02;;
56343;SDS011;42245;42.058;24.700;2023-08-30T10:31:35;13.32;;;9.40;;
56343;SDS011;42245;42.058;24.700;2023-08-30T10:34:11;12.60;;;9.18;;
56343;SDS011;42245;42.058;24.700;2023-08-30T10:36:56;15.27;;;9.65;;
56343;SDS011;42245;42.058;24.700;2023-08-30T10:39:35;11.50;;;8.98;;
56343;SDS011;42245;42.058;24.700;2023-08-30T10:42:06;11.38;;;9.43;;
56343;SDS011;42245;42.058;24.700;2023-08-30T10:44:57;16.23;;;9.55;;
56343;SDS011;42245;42.058;24.700;2023-08-30T10:47:27;9.95;;;8.70;;
56343;SDS011;42245;42.058;24.700;2023-08-30T10:49:56;11.43;;;9.15;;
56343;SDS011;42245;42.058;24.700;2023-08-30T10:52:25;13.23;;;8.38;;
56343;SDS011;42245;42.058;24.700;2023-08-30T10:54:52;15.52;;;9.75;;
56343;SDS011;42245;42.058;24.700;2023-08-30T10:57:18;16.83;;;9.45;;
56343;SDS011;42245;42.058;24.700;2023-08-30T11:00:08;15.18;;;9.85;;
56343;SDS011;42245;42.058;24.700;2023-08-30T11:02:38;11.70;;;9.52;;
56343;SDS011;42245;42.058;24.700;2023-08-30T11:05:08;16.33;;;9.35;;
56343;SDS011;42245;42.058;24.700;2023-08-30T11:07:33;17.73;;;9.70;;
56343;SDS011;42245;42.058;24.700;2023-08-30T11:09:59;15.05;;;9.35;;
56343;SDS011;42245;42.058;24.700;2023-08-30T11:12:25;13.88;;;9.18;;
56343;SDS011;42245;42.058;24.700;2023-08-30T11:14:53;12.88;;;10.05;;
56343;SDS011;42245;42.058;24.700;2023-08-30T11:17:19;18.67;;;10.32;;
56343;SDS011;42245;42.058;24.700;2023-08-30T11:19:45;19.50;;;10.65;;
56343;SDS011;42245;42.058;24.700;2023-08-30T11:22:13;19.77;;;10.25;;
56343;SDS011;42245;42.058;24.700;2023-08-30T11:24:40;12.88;;;10.15;;
56343;SDS011;42245;42.058;24.700;2023-08-30T11:27:06;13.30;;;10.63;;
56343;SDS011;42245;42.058;24.700;2023-08-30T11:29:31;17.15;;;9.65;;
56343;SDS011;42245;42.058;24.700;2023-08-30T11:31:57;17.13;;;10.02;;
56343;SDS011;42245;42.058;24.700;2023-08-30T11:34:22;16.95;;;9.93;;
56343;SDS011;42245;42.058;24.700;2023-08-30T11:36:48;15.65;;;10.10;;
56343;SDS011;42245;42.058;24.700;2023-08-30T11:39:15;16.30;;;10.07;;
56343;SDS011;42245;42.058;24.700;2023-08-30T11:41:41;15.23;;;10.43;;
56343;SDS011;42245;42.058;24.700;2023-08-30T11:44:07;12.88;;;9.73;;
56343;SDS011;42245;42.058;24.700;2023-08-30T11:46:33;18.05;;;10.85;;
56343;SDS011;42245;42.058;24.700;2023-08-30T11:48:58;14.88;;;10.63;;
56343;SDS011;42245;42.058;24.700;2023-08-30T11:51:24;18.98;;;10.55;;
56343;SDS011;42245;42.058;24.700;2023-08-30T11:53:50;13.85;;;9.73;;
56343;SDS011;42245;42.058;24.700;2023-08-30T11:56:16;17.25;;;10.05;;
56343;SDS011;42245;42.058;24.700;2023-08-30T11:58:41;15.30;;;9.88;;
56343;SDS011;42245;42.058;24.700;2023-08-30T12:01:08;14.68;;;10.10;;
56343;SDS011;42245;42.058;24.700;2023-08-30T12:03:34;17.00;;;10.00;;
56343;SDS011;42245;42.058;24.700;2023-08-30T12:06:00;12.15;;;9.85;;
56343;SDS011;42245;42.058;24.700;2023-08-30T12:08:30;15.82;;;10.38;;
56343;SDS011;42245;42.058;24.700;2023-08-30T12:10:56;15.00;;;9.57;;
56343;SDS011;42245;42.058;24.700;2023-08-30T12:13:25;12.27;;;10.10;;
56343;SDS011;42245;42.058;24.700;2023-08-30T12:15:52;19.95;;;10.63;;
56343;SDS011;42245;42.058;24.700;2023-08-30T12:18:22;14.25;;;9.85;;
56343;SDS011;42245;42.058;24.700;2023-08-30T12:20:55;16.90;;;10.48;;
56343;SDS011;42245;42.058;24.700;2023-08-30T12:23:24;11.20;;;10.00;;
56343;SDS011;42245;42.058;24.700;2023-08-30T12:26:00;15.88;;;10.20;;
56343;SDS011;42245;42.058;24.700;2023-08-30T12:28:36;12.82;;;9.77;;
56343;SDS011;42245;42.058;24.700;2023-08-30T12:31:03;13.95;;;10.23;;
56343;SDS011;42245;42.058;24.700;2023-08-30T12:33:32;17.80;;;11.02;;
56343;SDS011;42245;42.058;24.700;2023-08-30T12:35:58;19.05;;;10.52;;
56343;SDS011;42245;42.058;24.700;2023-08-30T12:38:24;16.58;;;10.95;;
56343;SDS011;42245;42.058;24.700;2023-08-30T12:40:51;16.48;;;10.82;;
56343;SDS011;42245;42.058;24.700;2023-08-30T12:43:17;17.80;;;11.10;;
56343;SDS011;42245;42.058;24.700;2023-08-30T12:45:43;25.13;;;12.07;;
56343;SDS011;42245;42.058;24.700;2023-08-30T12:48:10;15.13;;;10.63;;
56343;SDS011;42245;42.058;24.700;2023-08-30T12:50:37;14.60;;;10.90;;
56343;SDS011;42245;42.058;24.700;2023-08-30T12:53:03;16.38;;;11.50;;
56343;SDS011;42245;42.058;24.700;2023-08-30T12:55:29;12.65;;;11.18;;
56343;SDS011;42245;42.058;24.700;2023-08-30T12:57:55;13.68;;;10.90;;
56343;SDS011;42245;42.058;24.700;2023-08-30T13:00:21;17.35;;;11.18;;
56343;SDS011;42245;42.058;24.700;2023-08-30T13:02:46;17.35;;;10.93;;
56343;SDS011;42245;42.058;24.700;2023-08-30T13:05:12;13.18;;;10.52;;
56343;SDS011;42245;42.058;24.700;2023-08-30T13:07:37;17.20;;;10.65;;
56343;SDS011;42245;42.058;24.700;2023-08-30T13:10:04;17.63;;;11.13;;
56343;SDS011;42245;42.058;24.700;2023-08-30T13:12:30;19.05;;;11.10;;
56343;SDS011;42245;42.058;24.700;2023-08-30T13:14:56;15.38;;;11.18;;
56343;SDS011;42245;42.058;24.700;2023-08-30T13:17:21;15.73;;;11.52;;
56343;SDS011;42245;42.058;24.700;2023-08-30T13:19:47;15.13;;;11.10;;
56343;SDS011;42245;42.058;24.700;2023-08-30T13:22:12;16.27;;;10.70;;
56343;SDS011;42245;42.058;24.700;2023-08-30T13:24:38;17.10;;;11.05;;
56343;SDS011;42245;42.058;24.700;2023-08-30T13:27:03;18.52;;;11.68;;
56343;SDS011;42245;42.058;24.700;2023-08-30T13:29:29;17.20;;;11.25;;
56343;SDS011;42245;42.058;24.700;2023-08-30T13:31:55;17.23;;;11.30;;
56343;SDS011;42245;42.058;24.700;2023-08-30T13:34:20;15.13;;;10.90;;
56343;SDS011;42245;42.058;24.700;2023-08-30T13:36:46;14.02;;;11.02;;
56343;SDS011;42245;42.058;24.700;2023-08-30T13:39:11;16.17;;;10.77;;
56343;SDS011;42245;42.058;24.700;2023-08-30T13:41:37;17.55;;;11.32;;
56343;SDS011;42245;42.058;24.700;2023-08-30T13:44:03;18.83;;;11.80;;
56343;SDS011;42245;42.058;24.700;2023-08-30T13:46:29;23.23;;;13.35;;
56343;SDS011;42245;42.058;24.700;2023-08-30T13:48:55;21.88;;;11.48;;
56343;SDS011;42245;42.058;24.700;2023-08-30T13:51:23;17.55;;;10.93;;
56343;SDS011;42245;42.058;24.700;2023-08-30T13:53:50;20.40;;;11.38;;
56343;SDS011;42245;42.058;24.700;2023-08-30T13:56:16;17.70;;;11.82;;
56343;SDS011;42245;42.058;24.700;2023-08-30T13:58:41;13.80;;;11.35;;
56343;SDS011;42245;42.058;24.700;2023-08-30T14:01:07;21.83;;;12.13;;
56343;SDS011;42245;42.058;24.700;2023-08-30T14:03:33;17.98;;;11.75;;
56343;SDS011;42245;42.058;24.700;2023-08-30T14:05:58;23.27;;;15.68;;
56343;SDS011;42245;42.058;24.700;2023-08-30T14:08:24;31.23;;;18.60;;
56343;SDS011;42245;42.058;24.700;2023-08-30T14:10:49;40.00;;;23.73;;
56343;SDS011;42245;42.058;24.700;2023-08-30T14:13:15;21.92;;;14.15;;
56343;SDS011;42245;42.058;24.700;2023-08-30T14:15:41;66.13;;;29.02;;
56343;SDS011;42245;42.058;24.700;2023-08-30T14:18:07;33.47;;;18.40;;
56343;SDS011;42245;42.058;24.700;2023-08-30T14:20:32;41.70;;;13.52;;
56343;SDS011;42245;42.058;24.700;2023-08-30T14:22:58;23.58;;;12.73;;
56343;SDS011;42245;42.058;24.700;2023-08-30T14:25:23;20.02;;;13.52;;
56343;SDS011;42245;42.058;24.700;2023-08-30T14:27:49;30.88;;;14.10;;
56343;SDS011;42245;42.058;24.700;2023-08-30T14:30:15;21.33;;;13.15;;
56343;SDS011;42245;42.058;24.700;2023-08-30T14:32:40;19.95;;;13.35;;
56343;SDS011;42245;42.058;24.700;2023-08-30T14:35:06;20.00;;;13.30;;
56343;SDS011;42245;42.058;24.700;2023-08-30T14:37:32;21.17;;;12.85;;
56343;SDS011;42245;42.058;24.700;2023-08-30T14:40:01;21.23;;;12.80;;
56343;SDS011;42245;42.058;24.700;2023-08-30T14:42:29;35.92;;;13.55;;
56343;SDS011;42245;42.058;24.700;2023-08-30T14:44:54;17.42;;;12.85;;
56343;SDS011;42245;42.058;24.700;2023-08-30T14:47:20;23.67;;;12.13;;
56343;SDS011;42245;42.058;24.700;2023-08-30T14:49:48;14.85;;;11.38;;
56343;SDS011;42245;42.058;24.700;2023-08-30T14:52:14;14.40;;;11.63;;
56343;SDS011;42245;42.058;24.700;2023-08-30T14:54:39;22.20;;;12.27;;
56343;SDS011;42245;42.058;24.700;2023-08-30T14:57:05;26.52;;;12.32;;
56343;SDS011;42245;42.058;24.700;2023-08-30T14:59:32;18.30;;;11.85;;
56343;SDS011;42245;42.058;24.700;2023-08-30T15:01:57;20.77;;;12.35;;
56343;SDS011;42245;42.058;24.700;2023-08-30T15:04:23;17.67;;;12.20;;
56343;SDS011;42245;42.058;24.700;2023-08-30T15:06:48;16.17;;;11.98;;
56343;SDS011;42245;42.058;24.700;2023-08-30T15:09:14;15.23;;;11.30;;
56343;SDS011;42245;42.058;24.700;2023-08-30T15:11:44;22.55;;;11.88;;
56343;SDS011;42245;42.058;24.700;2023-08-30T15:14:10;17.20;;;12.00;;
56343;SDS011;42245;42.058;24.700;2023-08-30T15:16:36;18.90;;;11.85;;
56343;SDS011;42245;42.058;24.700;2023-08-30T15:19:02;18.10;;;12.43;;
56343;SDS011;42245;42.058;24.700;2023-08-30T15:21:28;17.15;;;12.18;;
56343;SDS011;42245;42.058;24.700;2023-08-30T15:23:53;17.00;;;11.77;;
56343;SDS011;42245;42.058;24.700;2023-08-30T15:26:19;19.55;;;12.77;;
56343;SDS011;42245;42.058;24.700;2023-08-30T15:28:49;18.80;;;12.68;;
56343;SDS011;42245;42.058;24.700;2023-08-30T15:31:15;19.05;;;12.27;;
56343;SDS011;42245;42.058;24.700;2023-08-30T15:33:44;18.70;;;12.73;;
56343;SDS011;42245;42.058;24.700;2023-08-30T15:36:10;20.85;;;12.20;;
56343;SDS011;42245;42.058;24.700;2023-08-30T15:38:35;13.27;;;11.18;;
56343;SDS011;42245;42.058;24.700;2023-08-30T15:41:03;17.08;;;11.73;;
56343;SDS011;42245;42.058;24.700;2023-08-30T15:43:31;25.20;;;12.90;;
56343;SDS011;42245;42.058;24.700;2023-08-30T15:46:04;17.92;;;12.00;;
56343;SDS011;42245;42.058;24.700;2023-08-30T15:48:30;19.33;;;12.02;;
56343;SDS011;42245;42.058;24.700;2023-08-30T15:50:55;18.35;;;12.18;;
56343;SDS011;42245;42.058;24.700;2023-08-30T15:53:21;21.92;;;11.88;;
56343;SDS011;42245;42.058;24.700;2023-08-30T15:55:46;16.73;;;12.00;;
56343;SDS011;42245;42.058;24.700;2023-08-30T15:58:14;20.65;;;12.48;;
56343;SDS011;42245;42.058;24.700;2023-08-30T16:00:42;17.17;;;12.18;;
56343;SDS011;42245;42.058;24.700;2023-08-30T16:03:09;18.05;;;11.48;;
56343;SDS011;42245;42.058;24.700;2023-08-30T16:05:35;21.58;;;12.35;;
56343;SDS011;42245;42.058;24.700;2023-08-30T16:08:00;19.60;;;11.68;;
56343;SDS011;42245;42.058;24.700;2023-08-30T16:10:26;21.25;;;11.70;;
56343;SDS011;42245;42.058;24.700;2023-08-30T16:12:51;17.08;;;11.52;;
56343;SDS011;42245;42.058;24.700;2023-08-30T16:15:19;16.38;;;11.27;;
56343;SDS011;42245;42.058;24.700;2023-08-30T16:17:46;18.27;;;10.82;;
56343;SDS011;42245;42.058;24.700;2023-08-30T16:20:11;19.55;;;12.15;;
56343;SDS011;42245;42.058;24.700;2023-08-30T16:22:37;16.15;;;10.88;;
56343;SDS011;42245;42.058;24.700;2023-08-30T16:25:03;17.55;;;11.82;;
56343;SDS011;42245;42.058;24.700;2023-08-30T16:27:30;18.70;;;12.13;;
56343;SDS011;42245;42.058;24.700;2023-08-30T16:29:55;18.92;;;11.73;;
56343;SDS011;42245;42.058;24.700;2023-08-30T16:32:21;19.88;;;11.45;;
56343;SDS011;42245;42.058;24.700;2023-08-30T16:34:47;20.83;;;11.07;;
56343;SDS011;42245;42.058;24.700;2023-08-30T16:37:14;17.70;;;11.25;;
56343;SDS011;42245;42.058;24.700;2023-08-30T16:39:40;19.48;;;11.60;;
56343;SDS011;42245;42.058;24.700;2023-08-30T16:42:05;16.85;;;11.10;;
56343;SDS011;42245;42.058;24.700;2023-08-30T16:44:31;15.10;;;11.38;;
56343;SDS011;42245;42.058;24.700;2023-08-30T16:46:56;17.15;;;11.45;;
56343;SDS011;42245;42.058;24.700;2023-08-30T16:49:22;19.00;;;12.18;;
56343;SDS011;42245;42.058;24.700;2023-08-30T16:51:47;18.60;;;11.82;;
56343;SDS011;42245;42.058;24.700;2023-08-30T16:54:13;18.75;;;11.88;;
56343;SDS011;42245;42.058;24.700;2023-08-30T16:56:38;15.82;;;11.50;;
56343;SDS011;42245;42.058;24.700;2023-08-30T16:59:04;18.23;;;11.90;;
56343;SDS011;42245;42.058;24.700;2023-08-30T17:01:29;17.38;;;12.13;;
56343;SDS011;42245;42.058;24.700;2023-08-30T17:03:55;17.48;;;12.00;;
56343;SDS011;42245;42.058;24.700;2023-08-30T17:06:20;14.98;;;11.65;;
56343;SDS011;42245;42.058;24.700;2023-08-30T17:08:47;22.27;;;12.07;;
56343;SDS011;42245;42.058;24.700;2023-08-30T17:11:13;17.17;;;12.00;;
56343;SDS011;42245;42.058;24.700;2023-08-30T17:13:39;17.60;;;12.02;;
56343;SDS011;42245;42.058;24.700;2023-08-30T17:16:05;15.32;;;12.65;;
56343;SDS011;42245;42.058;24.700;2023-08-30T17:18:33;20.92;;;12.07;;
56343;SDS011;42245;42.058;24.700;2023-08-30T17:21:03;15.38;;;11.88;;
56343;SDS011;42245;42.058;24.700;2023-08-30T17:23:34;17.10;;;11.63;;
56343;SDS011;42245;42.058;24.700;2023-08-30T17:26:00;16.58;;;12.50;;
56343;SDS011;42245;42.058;24.700;2023-08-30T17:28:25;16.88;;;11.82;;
56343;SDS011;42245;42.058;24.700;2023-08-30T17:30:51;19.42;;;12.15;;
56343;SDS011;42245;42.058;24.700;2023-08-30T17:33:17;15.30;;;11.98;;
56343;SDS011;42245;42.058;24.700;2023-08-30T17:35:43;16.98;;;11.93;;
56343;SDS011;42245;42.058;24.700;2023-08-30T17:38:08;21.23;;;11.73;;
56343;SDS011;42245;42.058;24.700;2023-08-30T17:40:34;17.13;;;11.57;;
56343;SDS011;42245;42.058;24.700;2023-08-30T17:43:00;17.67;;;11.43;;
56343;SDS011;42245;42.058;24.700;2023-08-30T17:45:32;18.08;;;11.68;;
56343;SDS011;42245;42.058;24.700;2023-08-30T17:47:58;14.75;;;11.75;;
56343;SDS011;42245;42.058;24.700;2023-08-30T17:50:25;17.17;;;12.25;;
56343;SDS011;42245;42.058;24.700;2023-08-30T17:52:51;13.70;;;11.02;;
56343;SDS011;42245;42.058;24.700;2023-08-30T17:55:17;15.27;;;11.57;;
56343;SDS011;42245;42.058;24.700;2023-08-30T17:57:42;19.23;;;11.63;;
56343;SDS011;42245;42.058;24.700;2023-08-30T18:00:09;15.00;;;11.55;;
56343;SDS011;42245;42.058;24.700;2023-08-30T18:02:35;13.95;;;11.90;;
56343;SDS011;42245;42.058;24.700;2023-08-30T18:05:01;13.40;;;11.75;;
56343;SDS011;42245;42.058;24.700;2023-08-30T18:07:31;19.13;;;12.20;;